CheckWX is a tool to help pilots better visualize weather data.  It is not intended as a substitute for an official pre-flight weather briefing.

21:48:21 UTC

EDHL METAR
Lübeck Blankensee Airport
Lübeck, Germany
Current

3 hours ago

EDHL 291850Z 26010KT CAVOK 04/02 Q1004
Observed
Jan-29 @ 18:50 UTC
Wind
  • 260° at 10 KTS
Visibility
10,000+ meters
Flight Rules
VFR
Cloud Levels
  • Clear skies
Temperature
C / 39°F
Dewpoint
C / 36°F
Humidity
87%
Altimeter
29.65" Hg
Pressure
1003.92 hPa
Previous

3 hours ago

EDHL 291820Z 26010KT 9999 FEW010 04/03 Q1003
Observed
Jan-29 @ 18:20 UTC
Wind
  • 260° at 10 KTS
Visibility
10,000+ meters
Flight Rules
VFR
Cloud Levels
  • Few at 1,000' AGL
Temperature
C / 39°F
Dewpoint
C / 37°F
Humidity
93%
Altimeter
29.62" Hg
Pressure
1002.92 hPa
Previous

4 hours ago

EDHL 291750Z 26010KT 9999 FEW040 04/03 Q1003
Observed
Jan-29 @ 17:50 UTC
Wind
  • 260° at 10 KTS
Visibility
10,000+ meters
Flight Rules
VFR
Cloud Levels
  • Few at 4,000' AGL
Temperature
C / 39°F
Dewpoint
C / 37°F
Humidity
93%
Altimeter
29.62" Hg
Pressure
1002.92 hPa